createdAt,value
2023-03-01T00:01:49.501Z,71.90
2023-03-01T00:04:18.099Z,72.02
2023-03-01T00:06:47.533Z,71.95
2023-03-01T00:09:16.741Z,72.26
2023-03-01T00:11:45.057Z,72.25
2023-03-01T00:14:16.248Z,71.91
2023-03-01T00:16:45.731Z,72.15
2023-03-01T00:19:17.118Z,72.09
2023-03-01T00:21:45.760Z,72.24
2023-03-01T00:24:15.081Z,72.48
2023-03-01T00:26:43.580Z,72.27
2023-03-01T00:29:12.001Z,72.34
2023-03-01T00:31:41.678Z,72.40
2023-03-01T00:34:10.014Z,72.60
2023-03-01T00:36:39.206Z,72.51
2023-03-01T00:39:12.426Z,72.74
2023-03-01T00:41:41.123Z,72.26
2023-03-01T00:44:09.431Z,72.87
2023-03-01T00:46:37.772Z,72.93
2023-03-01T00:49:07.658Z,73.29
2023-03-01T00:51:36.053Z,73.09
2023-03-01T00:54:05.255Z,73.07
2023-03-01T00:56:34.396Z,73.15
2023-03-01T00:59:03.329Z,73.03
2023-03-01T01:01:32.887Z,73.06
2023-03-01T01:04:03.591Z,73.04
2023-03-01T01:06:36.197Z,72.81
2023-03-01T01:09:05.593Z,72.87
2023-03-01T01:11:34.112Z,73.19
2023-03-01T01:14:02.419Z,73.17
2023-03-01T01:16:32.068Z,73.22
2023-03-01T01:19:02.121Z,73.18
2023-03-01T01:21:30.697Z,73.18
2023-03-01T01:24:00.948Z,73.30
2023-03-01T01:26:32.169Z,73.18
2023-03-01T01:29:01.828Z,72.97
2023-03-01T01:31:31.190Z,73.22
2023-03-01T01:34:00.438Z,73.26
2023-03-01T01:36:29.542Z,73.29
2023-03-01T01:38:58.795Z,73.38
2023-03-01T01:41:30.716Z,73.32
2023-03-01T01:44:17.642Z,73.30
2023-03-01T01:46:50.463Z,73.19
2023-03-01T01:49:26.629Z,72.95
2023-03-01T01:52:02.201Z,73.07
2023-03-01T01:54:37.307Z,72.62
2023-03-01T01:57:10.913Z,72.88
2023-03-01T01:59:40.376Z,73.17
2023-03-01T02:02:08.816Z,73.11
2023-03-01T02:04:37.323Z,73.01
2023-03-01T02:07:10.759Z,72.88
2023-03-01T02:09:39.718Z,72.69
2023-03-01T02:12:09.519Z,72.69
2023-03-01T02:14:37.836Z,73.02
2023-03-01T02:17:06.210Z,72.86
2023-03-01T02:19:48.047Z,72.83
2023-03-01T02:22:24.509Z,72.91
2023-03-01T02:25:04.233Z,73.09
2023-03-01T02:27:42.396Z,72.58
2023-03-01T02:30:14.105Z,72.73
2023-03-01T02:32:42.740Z,72.79
2023-03-01T02:35:14.989Z,72.72
2023-03-01T02:37:44.570Z,72.55
2023-03-01T02:40:18.355Z,72.51
2023-03-01T02:42:51.778Z,72.63
2023-03-01T02:45:22.285Z,72.79
2023-03-01T02:47:50.884Z,72.86
2023-03-01T02:50:42.810Z,72.62
2023-03-01T02:53:15.140Z,72.58
2023-03-01T02:55:43.704Z,72.59
2023-03-01T02:58:12.384Z,72.62
2023-03-01T03:00:46.564Z,72.47
2023-03-01T03:03:17.284Z,72.58
2023-03-01T03:05:45.867Z,72.70
2023-03-01T03:08:15.220Z,72.61
2023-03-01T03:10:44.045Z,72.54
2023-03-01T03:13:14.728Z,72.76
2023-03-01T03:15:50.001Z,72.46
2023-03-01T03:18:19.960Z,72.54
2023-03-01T03:20:48.358Z,72.26
2023-03-01T03:23:16.656Z,72.43
2023-03-01T03:25:45.045Z,72.13
2023-03-01T03:28:13.360Z,72.39
2023-03-01T03:30:43.030Z,72.29
2023-03-01T03:33:14.033Z,72.44
2023-03-01T03:35:44.407Z,72.52
2023-03-01T03:38:17.827Z,72.36
2023-03-01T03:40:48.338Z,72.51
2023-03-01T03:43:18.516Z,72.71
2023-03-01T03:45:47.845Z,72.39
2023-03-01T03:48:18.718Z,72.33
2023-03-01T03:50:51.364Z,72.41
2023-03-01T03:53:20.754Z,72.39
2023-03-01T03:55:50.227Z,72.50
2023-03-01T03:58:20.645Z,72.53
2023-03-01T04:00:52.856Z,72.58
2023-03-01T04:03:23.056Z,72.30
2023-03-01T04:05:52.411Z,72.01
2023-03-01T04:08:22.268Z,72.33
2023-03-01T04:10:54.247Z,72.27
2023-03-01T04:13:26.118Z,72.23
2023-03-01T04:15:55.810Z,72.31
2023-03-01T04:18:26.187Z,72.28
2023-03-01T04:20:59.228Z,72.14
2023-03-01T04:23:27.590Z,72.15
2023-03-01T04:25:57.945Z,72.12
2023-03-01T04:28:28.173Z,72.23
2023-03-01T04:30:58.250Z,72.27
2023-03-01T04:33:28.137Z,72.20
2023-03-01T04:35:56.637Z,72.14
2023-03-01T04:38:24.957Z,71.98
2023-03-01T04:40:53.294Z,72.05
2023-03-01T04:43:21.627Z,72.04
2023-03-01T04:45:50.026Z,72.10
2023-03-01T04:48:18.406Z,72.37
2023-03-01T04:50:48.374Z,72.17
2023-03-01T04:53:16.741Z,72.36
2023-03-01T04:55:45.248Z,72.21
2023-03-01T04:58:13.608Z,72.26
2023-03-01T05:00:41.953Z,72.35
2023-03-01T05:03:11.019Z,72.29
2023-03-01T05:05:40.786Z,72.54
2023-03-01T05:08:18.354Z,72.32
2023-03-01T05:10:48.282Z,72.48
2023-03-01T05:13:21.892Z,72.15
2023-03-01T05:15:51.366Z,72.54
2023-03-01T05:18:19.916Z,72.24
2023-03-01T05:20:48.427Z,72.21
2023-03-01T05:23:18.264Z,72.37
2023-03-01T05:25:46.880Z,72.27
2023-03-01T05:28:15.797Z,72.21
2023-03-01T05:30:44.491Z,72.21
2023-03-01T05:33:15.209Z,72.63
2023-03-01T05:35:44.488Z,72.33
2023-03-01T05:38:14.337Z,72.33
2023-03-01T05:40:45.900Z,72.49
2023-03-01T05:43:16.514Z,72.58
2023-03-01T05:45:45.392Z,72.14
2023-03-01T05:48:15.005Z,72.05
2023-03-01T05:50:45.595Z,72.12
2023-03-01T05:53:15.900Z,72.42
2023-03-01T05:55:48.240Z,72.02
2023-03-01T05:58:18.962Z,72.31
2023-03-01T06:00:49.730Z,72.10
2023-03-01T06:03:19.669Z,72.04
2023-03-01T06:05:48.064Z,72.17
2023-03-01T06:08:16.505Z,72.09
2023-03-01T06:10:46.199Z,71.78
2023-03-01T06:13:14.599Z,71.77
2023-03-01T06:15:42.985Z,71.98
2023-03-01T06:18:11.406Z,71.99
2023-03-01T06:20:39.720Z,72.10
2023-03-01T06:23:09.763Z,71.88
2023-03-01T06:25:39.061Z,72.08
2023-03-01T06:28:08.785Z,72.07
2023-03-01T06:30:37.163Z,71.94
2023-03-01T06:33:05.524Z,71.71
2023-03-01T06:35:34.122Z,71.74
2023-03-01T06:38:04.205Z,71.89
2023-03-01T06:40:36.333Z,72.10
2023-03-01T06:43:04.790Z,71.89
2023-03-01T06:45:34.585Z,71.83
2023-03-01T06:48:07.078Z,72.06
2023-03-01T06:50:36.576Z,71.88
2023-03-01T06:53:05.192Z,71.83
2023-03-01T06:55:34.500Z,71.64
2023-03-01T06:58:04.591Z,71.88
2023-03-01T07:00:34.681Z,72.08
2023-03-01T07:03:04.435Z,71.73
2023-03-01T07:05:32.850Z,71.75
2023-03-01T07:08:01.268Z,71.61
2023-03-01T07:10:29.793Z,71.95
2023-03-01T07:13:02.258Z,72.18
2023-03-01T07:15:30.731Z,71.99
2023-03-01T07:18:00.587Z,71.94
2023-03-01T07:20:29.163Z,71.95
2023-03-01T07:22:59.373Z,71.77
2023-03-01T07:25:27.717Z,71.88
2023-03-01T07:27:56.493Z,71.82
2023-03-01T07:30:29.333Z,71.90
2023-03-01T07:32:58.940Z,71.48
2023-03-01T07:35:29.768Z,71.69
2023-03-01T07:37:58.716Z,71.42
2023-03-01T07:40:27.145Z,71.61
2023-03-01T07:42:57.871Z,71.67
2023-03-01T07:45:26.363Z,71.76
2023-03-01T07:47:55.207Z,71.77
2023-03-01T07:50:24.651Z,71.55
2023-03-01T07:52:54.407Z,71.55
2023-03-01T07:55:22.753Z,71.44
2023-03-01T07:57:51.188Z,71.45
2023-03-01T08:00:20.312Z,71.51
2023-03-01T08:02:48.824Z,71.60
2023-03-01T08:05:17.751Z,71.47
2023-03-01T08:07:46.182Z,71.38
2023-03-01T08:10:15.936Z,71.45
2023-03-01T08:12:44.299Z,71.29
2023-03-01T08:15:16.002Z,71.11
2023-03-01T08:17:47.329Z,71.33
2023-03-01T08:20:15.822Z,71.31
2023-03-01T08:22:53.331Z,71.00
2023-03-01T08:25:23.070Z,71.40
2023-03-01T08:27:51.431Z,70.68
2023-03-01T08:30:21.417Z,71.12
2023-03-01T08:32:50.102Z,71.04
2023-03-01T08:35:18.929Z,70.77
2023-03-01T08:37:47.473Z,70.90
2023-03-01T08:40:16.160Z,70.66
2023-03-01T08:42:45.852Z,70.77
2023-03-01T08:45:15.222Z,70.42
2023-03-01T08:47:43.693Z,70.55
2023-03-01T08:50:12.431Z,70.53
2023-03-01T08:52:40.844Z,70.74
2023-03-01T08:55:10.482Z,70.39
2023-03-01T08:57:38.841Z,70.55
2023-03-01T09:00:10.605Z,70.70
2023-03-01T09:02:39.751Z,70.67
2023-03-01T09:05:08.700Z,70.47
2023-03-01T09:07:37.309Z,70.58
2023-03-01T09:10:06.432Z,70.60
2023-03-01T09:12:35.141Z,70.48
2023-03-01T09:15:03.514Z,70.41
2023-03-01T09:17:34.782Z,70.45
2023-03-01T09:20:06.634Z,70.35
2023-03-01T09:22:35.630Z,70.48
2023-03-01T09:25:04.006Z,70.50
2023-03-01T09:27:33.615Z,70.14
2023-03-01T09:30:02.062Z,70.36
2023-03-01T09:32:32.619Z,70.29
2023-03-01T09:35:05.750Z,70.50
2023-03-01T09:37:35.724Z,70.59
2023-03-01T09:40:06.332Z,70.58
2023-03-01T09:42:37.884Z,70.45
2023-03-01T09:45:13.914Z,70.28
2023-03-01T09:47:46.839Z,70.39
2023-03-01T09:50:18.693Z,70.51
2023-03-01T09:52:50.726Z,70.25
2023-03-01T09:55:27.852Z,69.91
2023-03-01T09:58:03.551Z,70.23
2023-03-01T10:00:39.078Z,70.16
2023-03-01T10:03:17.828Z,69.87
2023-03-01T10:05:54.991Z,69.61
2023-03-01T10:08:39.890Z,70.00
2023-03-01T10:11:32.959Z,69.53
2023-03-01T10:14:05.345Z,69.99
2023-03-01T10:16:43.962Z,69.65
2023-03-01T10:19:16.260Z,69.83
2023-03-01T10:21:48.514Z,69.54
2023-03-01T10:24:22.476Z,69.44
2023-03-01T10:26:57.358Z,69.44
2023-03-01T10:29:31.859Z,69.66
2023-03-01T10:32:00.309Z,69.08
2023-03-01T10:34:34.286Z,69.13
2023-03-01T10:37:15.864Z,69.20
2023-03-01T10:40:06.938Z,69.21
2023-03-01T10:42:40.042Z,68.81
2023-03-01T10:45:29.054Z,68.42
2023-03-01T10:48:07.246Z,68.73
2023-03-01T10:50:35.717Z,68.73
2023-03-01T10:53:06.701Z,68.51
2023-03-01T10:55:38.221Z,69.08
2023-03-01T10:58:20.023Z,68.93
2023-03-01T11:00:52.129Z,68.83
2023-03-01T11:03:24.539Z,68.80
2023-03-01T11:06:05.434Z,68.97
2023-03-01T11:08:40.814Z,68.51
2023-03-01T11:11:18.149Z,68.36
2023-03-01T11:13:57.162Z,68.64
2023-03-01T11:16:31.914Z,68.35
2023-03-01T11:19:22.067Z,68.48
2023-03-01T11:22:16.186Z,68.52
2023-03-01T11:25:09.530Z,68.42
2023-03-01T11:27:45.572Z,68.26
2023-03-01T11:30:22.331Z,68.21
2023-03-01T11:33:00.716Z,68.23
2023-03-01T11:35:30.814Z,68.02
2023-03-01T11:38:11.676Z,68.66
2023-03-01T11:40:45.735Z,68.64
2023-03-01T11:43:21.438Z,67.90
2023-03-01T11:46:11.844Z,68.17
2023-03-01T11:48:52.827Z,68.18
2023-03-01T11:51:27.673Z,68.35
2023-03-01T11:54:20.536Z,68.08
2023-03-01T11:56:56.865Z,67.97
2023-03-01T12:00:02.808Z,67.71
2023-03-01T12:03:01.094Z,68.29
2023-03-01T12:05:55.377Z,67.44
2023-03-01T12:08:31.167Z,68.11
2023-03-01T12:11:12.238Z,67.68
2023-03-01T12:14:09.194Z,67.65
2023-03-01T12:16:55.377Z,67.51
2023-03-01T12:19:36.638Z,67.41
2023-03-01T12:22:15.717Z,67.65
2023-03-01T12:25:13.324Z,68.01
2023-03-01T12:28:10.897Z,67.77
2023-03-01T12:30:59.933Z,68.09
2023-03-01T12:33:36.607Z,67.79
2023-03-01T12:36:25.941Z,67.62
2023-03-01T12:39:04.500Z,68.22
2023-03-01T12:41:47.083Z,67.67
2023-03-01T12:44:33.589Z,68.01
2023-03-01T12:47:14.605Z,67.59
2023-03-01T12:49:47.412Z,67.80
2023-03-01T12:52:20.521Z,66.62
2023-03-01T12:54:50.878Z,66.22
2023-03-01T12:57:23.499Z,66.89
2023-03-01T13:00:10.640Z,66.31
2023-03-01T13:02:47.752Z,66.77
2023-03-01T13:05:29.592Z,66.66
2023-03-01T13:08:05.028Z,66.86
2023-03-01T13:10:38.942Z,66.90
2023-03-01T13:13:16.682Z,66.45
2023-03-01T13:15:45.024Z,66.52
2023-03-01T13:18:44.783Z,66.65
2023-03-01T13:21:13.199Z,66.53
2023-03-01T13:23:42.520Z,66.21
2023-03-01T13:26:16.572Z,66.23
2023-03-01T13:28:58.911Z,66.25
2023-03-01T13:32:05.514Z,65.81
2023-03-01T13:34:54.785Z,66.03
2023-03-01T13:37:35.144Z,66.31
2023-03-01T13:40:27.536Z,66.37
2023-03-01T13:43:05.684Z,66.37
2023-03-01T13:45:40.257Z,66.15
2023-03-01T13:48:13.404Z,66.30
2023-03-01T13:50:53.755Z,66.13
2023-03-01T13:53:26.626Z,65.93
2023-03-01T13:56:00.976Z,65.81
2023-03-01T13:58:32.030Z,65.75
2023-03-01T14:01:06.397Z,65.50
2023-03-01T14:03:42.639Z,65.37
2023-03-01T14:06:19.762Z,65.13
2023-03-01T14:08:51.907Z,65.20
2023-03-01T14:11:42.761Z,64.58
2023-03-01T14:14:32.082Z,64.70
2023-03-01T14:17:12.618Z,64.63
2023-03-01T14:19:46.006Z,64.46
2023-03-01T14:22:24.000Z,64.55
2023-03-01T14:24:56.843Z,64.19
2023-03-01T14:27:28.607Z,64.32
2023-03-01T14:29:59.326Z,64.06
2023-03-01T14:32:30.317Z,63.82
2023-03-01T14:35:01.228Z,64.00
2023-03-01T14:37:36.412Z,63.86
2023-03-01T14:40:07.871Z,63.88
2023-03-01T14:42:38.150Z,63.89
2023-03-01T14:45:09.842Z,63.86
2023-03-01T14:47:44.956Z,64.09
2023-03-01T14:50:23.519Z,64.18
2023-03-01T14:52:57.999Z,64.25
2023-03-01T14:55:31.511Z,64.71
2023-03-01T14:58:03.139Z,64.26
2023-03-01T15:00:33.637Z,64.07
2023-03-01T15:03:10.829Z,64.01
2023-03-01T15:05:39.409Z,63.87
2023-03-01T15:08:14.578Z,63.96
2023-03-01T15:10:44.577Z,63.94
2023-03-01T15:13:13.955Z,63.81
2023-03-01T15:15:45.282Z,63.99
2023-03-01T15:18:19.570Z,64.12
2023-03-01T15:20:49.749Z,64.21
2023-03-01T15:23:26.026Z,63.98
2023-03-01T15:25:58.352Z,64.06
2023-03-01T15:28:30.322Z,64.40
2023-03-01T15:31:02.734Z,64.73
2023-03-01T15:33:34.295Z,64.65
2023-03-01T15:36:04.201Z,65.11
2023-03-01T15:38:41.502Z,64.69
2023-03-01T15:41:25.386Z,64.82
2023-03-01T15:43:56.477Z,64.98
2023-03-01T15:46:28.769Z,64.74
2023-03-01T15:48:59.923Z,64.81
2023-03-01T15:51:35.161Z,65.00
2023-03-01T15:54:08.740Z,64.73
2023-03-01T15:56:37.066Z,64.99
2023-03-01T15:59:06.780Z,65.10
2023-03-01T16:01:36.227Z,65.67
2023-03-01T16:04:04.586Z,65.69
2023-03-01T16:06:33.763Z,65.77
2023-03-01T16:09:03.564Z,65.38
2023-03-01T16:11:33.604Z,66.00
2023-03-01T16:14:01.949Z,65.92
2023-03-01T16:16:30.784Z,65.80
2023-03-01T16:18:59.352Z,65.66
2023-03-01T16:21:27.716Z,66.22
2023-03-01T16:23:56.142Z,66.11
2023-03-01T16:26:24.776Z,66.48
2023-03-01T16:28:57.815Z,66.90
2023-03-01T16:31:28.202Z,66.39
2023-03-01T16:33:57.103Z,67.03
2023-03-01T16:36:29.075Z,67.36
2023-03-01T16:39:00.145Z,67.08
2023-03-01T16:41:31.381Z,67.20
2023-03-01T16:44:01.678Z,67.23
2023-03-01T16:46:32.650Z,67.15
2023-03-01T16:49:04.785Z,67.29
2023-03-01T16:51:35.717Z,67.39
2023-03-01T16:54:05.485Z,67.04
2023-03-01T16:56:36.025Z,67.38
2023-03-01T16:59:06.645Z,67.23
2023-03-01T17:01:38.654Z,67.35
2023-03-01T17:04:07.368Z,67.79
2023-03-01T17:06:35.721Z,67.41
2023-03-01T17:09:04.685Z,67.64
2023-03-01T17:11:33.472Z,67.67
2023-03-01T17:14:02.104Z,67.32
2023-03-01T17:16:32.057Z,67.68
2023-03-01T17:19:01.568Z,67.38
2023-03-01T17:21:32.745Z,67.84
2023-03-01T17:24:01.518Z,67.86
2023-03-01T17:26:30.292Z,67.80
2023-03-01T17:29:01.362Z,67.56
2023-03-01T17:31:31.417Z,67.87
2023-03-01T17:34:01.667Z,67.49
2023-03-01T17:36:43.943Z,67.93
2023-03-01T17:39:12.576Z,68.11
2023-03-01T17:41:40.936Z,68.19
2023-03-01T17:44:09.294Z,68.19
2023-03-01T17:46:39.078Z,68.09
2023-03-01T17:49:07.401Z,68.04
2023-03-01T17:51:37.474Z,67.95
2023-03-01T17:54:07.083Z,67.93
2023-03-01T17:56:38.143Z,68.10
2023-03-01T17:59:07.191Z,68.33
2023-03-01T18:01:36.186Z,68.40
2023-03-01T18:04:05.977Z,68.43
2023-03-01T18:06:34.553Z,68.27
2023-03-01T18:09:02.989Z,68.75
2023-03-01T18:11:31.731Z,68.98
2023-03-01T18:14:00.166Z,69.05
2023-03-01T18:16:31.839Z,69.04
2023-03-01T18:19:02.188Z,69.04
2023-03-01T18:21:32.593Z,69.37
2023-03-01T18:24:06.024Z,69.41
2023-03-01T18:26:38.099Z,69.79
2023-03-01T18:29:08.099Z,69.54
2023-03-01T18:31:36.548Z,69.63
2023-03-01T18:34:04.898Z,69.62
2023-03-01T18:36:36.406Z,69.38
2023-03-01T18:39:06.481Z,69.39
2023-03-01T18:41:35.857Z,69.64
2023-03-01T18:44:05.625Z,69.74
2023-03-01T18:46:37.773Z,69.88
2023-03-01T18:49:07.382Z,69.95
2023-03-01T18:51:37.247Z,69.89
2023-03-01T18:54:05.743Z,69.79
2023-03-01T18:56:35.397Z,69.67
2023-03-01T18:59:04.038Z,69.58
2023-03-01T19:01:36.884Z,69.48
2023-03-01T19:04:06.402Z,69.65
2023-03-01T19:06:35.565Z,69.46
2023-03-01T19:09:05.559Z,69.62
2023-03-01T19:11:35.469Z,69.66
2023-03-01T19:14:05.340Z,69.84
2023-03-01T19:16:35.796Z,70.06
2023-03-01T19:19:07.215Z,70.00
2023-03-01T19:21:35.883Z,70.33
2023-03-01T19:24:07.373Z,70.28
2023-03-01T19:26:36.550Z,70.33
2023-03-01T19:29:06.202Z,70.17
2023-03-01T19:31:34.968Z,70.08
2023-03-01T19:34:11.595Z,70.13
2023-03-01T19:36:42.552Z,70.23
2023-03-01T19:39:14.384Z,70.55
2023-03-01T19:41:43.137Z,70.28
2023-03-01T19:44:12.269Z,70.33
2023-03-01T19:46:41.123Z,70.43
2023-03-01T19:49:09.596Z,70.59
2023-03-01T19:51:39.472Z,70.39
2023-03-01T19:54:09.804Z,70.71
2023-03-01T19:56:39.848Z,70.73
2023-03-01T19:59:08.634Z,70.58
2023-03-01T20:01:37.717Z,70.80
2023-03-01T20:04:06.529Z,70.97
2023-03-01T20:06:35.229Z,70.96
2023-03-01T20:09:19.129Z,70.86
2023-03-01T20:11:50.952Z,70.88
2023-03-01T20:14:21.119Z,70.83
2023-03-01T20:16:51.742Z,70.95
2023-03-01T20:19:20.891Z,70.79
2023-03-01T20:21:49.250Z,71.35
2023-03-01T20:24:17.598Z,71.67
2023-03-01T20:26:45.911Z,71.60
2023-03-01T20:29:15.663Z,71.50
2023-03-01T20:31:44.378Z,71.37
2023-03-01T20:34:12.818Z,71.55
2023-03-01T20:36:43.853Z,71.77
2023-03-01T20:39:12.392Z,71.93
2023-03-01T20:41:40.931Z,71.80
2023-03-01T20:44:09.926Z,71.66
2023-03-01T20:46:40.359Z,71.70
2023-03-01T20:49:08.772Z,71.74
2023-03-01T20:51:37.839Z,71.93
2023-03-01T20:54:10.639Z,71.90
2023-03-01T20:56:39.245Z,71.74
2023-03-01T20:59:09.726Z,71.73
2023-03-01T21:01:40.233Z,72.03
2023-03-01T21:04:09.280Z,72.06
2023-03-01T21:06:37.874Z,72.00
2023-03-01T21:09:07.090Z,71.94
2023-03-01T21:11:35.520Z,71.77
2023-03-01T21:14:05.331Z,71.78
2023-03-01T21:16:35.255Z,71.64
2023-03-01T21:19:05.606Z,71.70
2023-03-01T21:21:34.235Z,71.64
2023-03-01T21:24:02.610Z,71.55
2023-03-01T21:26:31.332Z,71.49
2023-03-01T21:29:02.032Z,71.50
2023-03-01T21:31:34.005Z,71.92
2023-03-01T21:34:05.147Z,71.61
2023-03-01T21:36:36.401Z,71.95
2023-03-01T21:39:06.678Z,71.94
2023-03-01T21:41:37.309Z,71.96
2023-03-01T21:44:07.766Z,71.90
2023-03-01T21:46:38.446Z,72.26
2023-03-01T21:49:07.592Z,71.93
2023-03-01T21:51:37.950Z,71.72
2023-03-01T21:54:06.827Z,72.11
2023-03-01T21:56:39.103Z,72.11
2023-03-01T21:59:10.162Z,72.09
2023-03-01T22:01:38.733Z,72.17
2023-03-01T22:04:07.596Z,72.28
2023-03-01T22:06:41.025Z,72.27
2023-03-01T22:09:12.743Z,72.04
2023-03-01T22:11:43.688Z,71.94
2023-03-01T22:14:13.771Z,72.09
2023-03-01T22:16:45.644Z,71.96
2023-03-01T22:19:15.375Z,71.97
2023-03-01T22:21:46.723Z,72.10
2023-03-01T22:24:15.207Z,72.21
2023-03-01T22:26:45.976Z,72.16
2023-03-01T22:29:16.110Z,71.88
2023-03-01T22:31:44.935Z,72.19
2023-03-01T22:34:14.732Z,72.12
2023-03-01T22:36:43.254Z,72.23
2023-03-01T22:39:15.736Z,72.45
2023-03-01T22:41:47.180Z,72.34
2023-03-01T22:44:18.809Z,72.45
2023-03-01T22:46:48.052Z,72.71
2023-03-01T22:49:20.051Z,72.78
2023-03-01T22:51:51.189Z,72.72
2023-03-01T22:54:21.450Z,72.85
2023-03-01T22:56:50.235Z,72.90
2023-03-01T22:59:22.663Z,73.08
2023-03-01T23:01:52.072Z,73.31
2023-03-01T23:04:21.800Z,73.13
2023-03-01T23:06:54.828Z,73.06
2023-03-01T23:09:26.974Z,73.25
2023-03-01T23:11:56.582Z,73.37
2023-03-01T23:14:26.041Z,73.51
2023-03-01T23:16:55.018Z,73.44
2023-03-01T23:19:23.634Z,73.36
2023-03-01T23:21:54.235Z,73.63
2023-03-01T23:24:31.879Z,73.54
2023-03-01T23:27:02.288Z,73.42
2023-03-01T23:29:31.017Z,73.68
2023-03-01T23:32:00.463Z,73.52
2023-03-01T23:34:28.932Z,73.43
2023-03-01T23:36:58.628Z,73.46
2023-03-01T23:39:29.932Z,73.58
2023-03-01T23:41:59.079Z,73.48
2023-03-01T23:44:27.454Z,73.33
2023-03-01T23:46:56.115Z,73.69
2023-03-01T23:49:25.132Z,73.43
2023-03-01T23:51:53.551Z,73.61
2023-03-01T23:54:24.249Z,73.54
2023-03-01T23:56:54.125Z,73.77
2023-03-01T23:59:24.306Z,73.73
